F/V Mailys Charlie — FMIW — position and weather

sailwx.info

Track history (hours):
 
Tides and Currents Weather Stations Pressure Air Temp Water Temp Dewpoint Dewpoint Depression Visibility Wind Speed Wind Dir Waves Ship Positions

F/V Mailys Charlie

Last reported at 2017-Jan-19 22:33 UTC. Time now 2017-Jan-19 23:33 UTC.
Position N 47°21' W 002°31'.

Length 19 m.

Type: Fishing. MMSI: 228240800.

Date/timePositionNaut miles runAvg speedWind from/ knotsBaromVisibWave heightAir tempDewpointWater temp
2017-Jan-19 22:33N 47°21' W 002°31'0 0.0
2017-Jan-19 21:33N 47°21' W 002°31'0 0.0
2017-Jan-19 20:33N 47°21' W 002°31'0 0.0
2017-Jan-19 19:33N 47°21' W 002°31'0 0.0
2017-Jan-19 18:33N 47°21' W 002°31'4 3.1
2017-Jan-19 17:12N 47°20' W 002°37'710.3
2017-Jan-19 16:33N 47°18' W 002°46'9 8.9
2017-Jan-19 15:33N 47°20' W 002°59'8 8.3
2017-Jan-19 14:34N 47°23' W 003°10'8 8.2
2017-Jan-19 13:34N 47°26' W 003°22'9 8.6
2017-Jan-19 12:34N 47°26' W 003°34'9 8.4
2017-Jan-19 11:32N 47°27' W 003°47'  
2017-Jan-15 01:32N 47°16' W 003°38'6 6.5
2017-Jan-15 00:33N 47°16' W 003°29'7 6.6
2017-Jan-14 23:33N 47°16' W 003°19'6 6.5
2017-Jan-14 22:34N 47°16' W 003°09'7 7.1
2017-Jan-14 21:33N 47°16' W 002°59'8 7.6
2017-Jan-14 20:34N 47°18' W 002°48'7 7.1
2017-Jan-14 19:33N 47°20' W 002°38'5 4.6
2017-Jan-14 18:30N 47°21' W 002°31'0 0.0
2017-Jan-14 17:33N 47°21' W 002°31'0 0.0
2017-Jan-14 16:33N 47°21' W 002°31'0 0.0
2017-Jan-14 15:33N 47°21' W 002°31'0 0.0
2017-Jan-14 14:33N 47°21' W 002°31'0 0.0
2017-Jan-14 13:33N 47°21' W 002°31'0 0.0
2017-Jan-14 12:33N 47°21' W 002°31'0 0.0
2017-Jan-14 11:33N 47°21' W 002°31'0 0.0
2017-Jan-14 10:33N 47°21' W 002°31'0 0.0
2017-Jan-14 09:33N 47°21' W 002°31'0 0.0
2017-Jan-14 08:33N 47°21' W 002°31'0 0.0
2017-Jan-14 07:33N 47°21' W 002°31'0 0.0
2017-Jan-14 06:33N 47°21' W 002°31'0 0.0
2017-Jan-14 05:33N 47°21' W 002°31'0 0.0
2017-Jan-14 04:33N 47°21' W 002°31'0 0.0
2017-Jan-14 03:33N 47°21' W 002°31'0 0.0
2017-Jan-13 23:33N 47°21' W 002°31'0 0.0
2017-Jan-13 22:33N 47°21' W 002°31'0 0.0
2017-Jan-13 21:33N 47°21' W 002°31'0 0.0
2017-Jan-13 20:33N 47°21' W 002°31'0 0.0
2017-Jan-13 19:33N 47°21' W 002°31'0 0.0
2017-Jan-13 18:33N 47°21' W 002°31'0 0.0
2017-Jan-13 17:33N 47°21' W 002°31'0 0.0
2017-Jan-13 16:33N 47°21' W 002°31'0 0.0
2017-Jan-13 15:34N 47°21' W 002°31'0 0.0
2017-Jan-13 14:33N 47°21' W 002°31'0 0.0
2017-Jan-13 13:33N 47°21' W 002°31'0 0.0
2017-Jan-13 12:33N 47°21' W 002°31'0 0.0
2017-Jan-13 11:33N 47°21' W 002°31'0 0.0
2017-Jan-13 10:33N 47°21' W 002°31'0 0.0
2017-Jan-13 09:33N 47°21' W 002°31'0 0.0
2017-Jan-13 08:33N 47°21' W 002°31'0 0.0
2017-Jan-13 07:33N 47°21' W 002°31'0 0.0
2017-Jan-13 06:33N 47°21' W 002°31'0 0.0
2017-Jan-13 05:33N 47°21' W 002°31'0 0.0
2017-Jan-13 04:33N 47°21' W 002°31'0 0.0
2017-Jan-13 03:33N 47°21' W 002°31'0 0.0
2017-Jan-13 02:33N 47°21' W 002°31'0 0.0
2017-Jan-13 01:33N 47°21' W 002°31'0 0.0
2017-Jan-13 00:33N 47°21' W 002°31'0 0.0
2017-Jan-12 23:33N 47°21' W 002°31'0 0.0
2017-Jan-12 20:27N 47°21' W 002°31'0 0.0
2017-Jan-12 19:33N 47°21' W 002°31'0 0.0
2017-Jan-12 18:33N 47°21' W 002°31'0 0.0
2017-Jan-12 17:33N 47°21' W 002°31'0 0.0
2017-Jan-12 16:34N 47°21' W 002°31'0 0.0
2017-Jan-12 15:33N 47°21' W 002°31'0 0.0
2017-Jan-12 14:33N 47°21' W 002°31'0 0.0
2017-Jan-12 13:33N 47°21' W 002°31'0 0.0
2017-Jan-12 12:33N 47°21' W 002°31'9 8.5
2017-Jan-12 11:33N 47°19' W 002°43'10 9.8
2017-Jan-12 10:33N 47°17' W 002°57'9 9.2
2017-Jan-12 09:33N 47°16' W 003°11'9 8.7
2017-Jan-12 08:33N 47°16' W 003°24'57 9.1
2017-Jan-12 02:20N 47°18' W 004°47'6 7.9
2017-Jan-12 01:33N 47°18' W 004°56'5 2.1
2017-Jan-11 23:06N 47°20' W 005°03'2 2.9
2017-Jan-11 22:32N 47°19' W 005°01'0 0.1
2017-Jan-11 19:32N 47°19' W 005°01'3 3.0
2017-Jan-11 18:31N 47°19' W 004°57'4 4.5
2017-Jan-11 17:33N 47°17' W 004°51'2 1.2
2017-Jan-11 16:04N 47°16' W 004°49'1 1.5
2017-Jan-11 15:28N 47°17' W 004°50'1 1.5
2017-Jan-11 14:29N 47°18' W 004°51'1 1.4
2017-Jan-11 13:33N 47°18' W 004°53'1 1.3
2017-Jan-11 12:32N 47°19' W 004°55'1 1.2
2017-Jan-11 11:28N 47°19' W 004°57'1 0.8
2017-Jan-11 10:34N 47°19' W 004°58'1 0.8
2017-Jan-11 09:05N 47°19' W 004°59'  
Track history (hours):
 
Tides and Currents Weather Stations Pressure Air Temp Water Temp Dewpoint Dewpoint Depression Visibility Wind Speed Wind Dir Waves Ship Positions

F/V Mailys Charlie

Last reported at 2017-Jan-19 22:33 UTC. Time now 2017-Jan-19 23:33 UTC.
Position N 47°21' W 002°31'.

Length 19 m.

Type: Fishing. MMSI: 228240800.

Date/timePositionNaut miles runAvg speedWind from/ knotsBaromVisibWave heightAir tempDewpointWater temp
2017-Jan-19 22:33N 47°21' W 002°31'0 0.0
2017-Jan-19 21:33N 47°21' W 002°31'0 0.0
2017-Jan-19 20:33N 47°21' W 002°31'0 0.0
2017-Jan-19 19:33N 47°21' W 002°31'0 0.0
2017-Jan-19 18:33N 47°21' W 002°31'4 3.1
2017-Jan-19 17:12N 47°20' W 002°37'710.3
2017-Jan-19 16:33N 47°18' W 002°46'9 8.9
2017-Jan-19 15:33N 47°20' W 002°59'8 8.3
2017-Jan-19 14:34N 47°23' W 003°10'8 8.2
2017-Jan-19 13:34N 47°26' W 003°22'9 8.6
2017-Jan-19 12:34N 47°26' W 003°34'9 8.4
2017-Jan-19 11:32N 47°27' W 003°47'  
2017-Jan-15 01:32N 47°16' W 003°38'6 6.5
2017-Jan-15 00:33N 47°16' W 003°29'7 6.6
2017-Jan-14 23:33N 47°16' W 003°19'6 6.5
2017-Jan-14 22:34N 47°16' W 003°09'7 7.1
2017-Jan-14 21:33N 47°16' W 002°59'8 7.6
2017-Jan-14 20:34N 47°18' W 002°48'7 7.1
2017-Jan-14 19:33N 47°20' W 002°38'5 4.6
2017-Jan-14 18:30N 47°21' W 002°31'0 0.0
2017-Jan-14 17:33N 47°21' W 002°31'0 0.0
2017-Jan-14 16:33N 47°21' W 002°31'0 0.0
2017-Jan-14 15:33N 47°21' W 002°31'0 0.0
2017-Jan-14 14:33N 47°21' W 002°31'0 0.0
2017-Jan-14 13:33N 47°21' W 002°31'0 0.0
2017-Jan-14 12:33N 47°21' W 002°31'0 0.0
2017-Jan-14 11:33N 47°21' W 002°31'0 0.0
2017-Jan-14 10:33N 47°21' W 002°31'0 0.0
2017-Jan-14 09:33N 47°21' W 002°31'0 0.0
2017-Jan-14 08:33N 47°21' W 002°31'0 0.0
2017-Jan-14 07:33N 47°21' W 002°31'0 0.0
2017-Jan-14 06:33N 47°21' W 002°31'0 0.0
2017-Jan-14 05:33N 47°21' W 002°31'0 0.0
2017-Jan-14 04:33N 47°21' W 002°31'0 0.0
2017-Jan-14 03:33N 47°21' W 002°31'0 0.0
2017-Jan-13 23:33N 47°21' W 002°31'0 0.0
2017-Jan-13 22:33N 47°21' W 002°31'0 0.0
2017-Jan-13 21:33N 47°21' W 002°31'0 0.0
2017-Jan-13 20:33N 47°21' W 002°31'0 0.0
2017-Jan-13 19:33N 47°21' W 002°31'0 0.0
2017-Jan-13 18:33N 47°21' W 002°31'0 0.0
2017-Jan-13 17:33N 47°21' W 002°31'0 0.0
2017-Jan-13 16:33N 47°21' W 002°31'0 0.0
2017-Jan-13 15:34N 47°21' W 002°31'0 0.0
2017-Jan-13 14:33N 47°21' W 002°31'0 0.0
2017-Jan-13 13:33N 47°21' W 002°31'0 0.0
2017-Jan-13 12:33N 47°21' W 002°31'0 0.0
2017-Jan-13 11:33N 47°21' W 002°31'0 0.0
2017-Jan-13 10:33N 47°21' W 002°31'0 0.0
2017-Jan-13 09:33N 47°21' W 002°31'0 0.0
2017-Jan-13 08:33N 47°21' W 002°31'0 0.0
2017-Jan-13 07:33N 47°21' W 002°31'0 0.0
2017-Jan-13 06:33N 47°21' W 002°31'0 0.0
2017-Jan-13 05:33N 47°21' W 002°31'0 0.0
2017-Jan-13 04:33N 47°21' W 002°31'0 0.0
2017-Jan-13 03:33N 47°21' W 002°31'0 0.0
2017-Jan-13 02:33N 47°21' W 002°31'0 0.0
2017-Jan-13 01:33N 47°21' W 002°31'0 0.0
2017-Jan-13 00:33N 47°21' W 002°31'0 0.0
2017-Jan-12 23:33N 47°21' W 002°31'0 0.0
2017-Jan-12 20:27N 47°21' W 002°31'0 0.0
2017-Jan-12 19:33N 47°21' W 002°31'0 0.0
2017-Jan-12 18:33N 47°21' W 002°31'0 0.0
2017-Jan-12 17:33N 47°21' W 002°31'0 0.0
2017-Jan-12 16:34N 47°21' W 002°31'0 0.0
2017-Jan-12 15:33N 47°21' W 002°31'0 0.0
2017-Jan-12 14:33N 47°21' W 002°31'0 0.0
2017-Jan-12 13:33N 47°21' W 002°31'0 0.0
2017-Jan-12 12:33N 47°21' W 002°31'9 8.5
2017-Jan-12 11:33N 47°19' W 002°43'10 9.8
2017-Jan-12 10:33N 47°17' W 002°57'9 9.2
2017-Jan-12 09:33N 47°16' W 003°11'9 8.7
2017-Jan-12 08:33N 47°16' W 003°24'57 9.1
2017-Jan-12 02:20N 47°18' W 004°47'6 7.9
2017-Jan-12 01:33N 47°18' W 004°56'5 2.1
2017-Jan-11 23:06N 47°20' W 005°03'2 2.9
2017-Jan-11 22:32N 47°19' W 005°01'0 0.1
2017-Jan-11 19:32N 47°19' W 005°01'3 3.0
2017-Jan-11 18:31N 47°19' W 004°57'4 4.5
2017-Jan-11 17:33N 47°17' W 004°51'2 1.2
2017-Jan-11 16:04N 47°16' W 004°49'1 1.5
2017-Jan-11 15:28N 47°17' W 004°50'1 1.5
2017-Jan-11 14:29N 47°18' W 004°51'1 1.4
2017-Jan-11 13:33N 47°18' W 004°53'1 1.3
2017-Jan-11 12:32N 47°19' W 004°55'1 1.2
2017-Jan-11 11:28N 47°19' W 004°57'1 0.8
2017-Jan-11 10:34N 47°19' W 004°58'1 0.8
2017-Jan-11 09:05N 47°19' W 004°59'  

Dump ship's entire track history